Time;durP1;ratioP1;P1;durP2;ratioP2;P2;SDS_P1;SDS_P2;PMS_P1;PMS_P2;Temp;Humidity;BMP_temperature;BMP_pressure;BME280_temperature;BME280_humidity;BME280_pressure;Samples;Min_cycle;Max_cycle;Signal;HPM_P1;HPM_P2
2022/10/09 00:02:08;;;;;;;;;;;;;;;;;;5026483;28;19921;-58
2022/10/09 00:04:34;;;;;;;;;;;;;;;;;;5026890;28;19921;-57
2022/10/09 00:07:00;;;;;;;;;;;;;;;;;;5025912;28;19960;-57
2022/10/09 00:09:26;;;;;;;;;;;;;;;;;;5026959;28;19921;-58
2022/10/09 00:11:52;;;;;;;;;;;;;;;;;;5027577;28;19983;-57
2022/10/09 00:14:18;;;;;;;;;;;;;;;;;;5023239;28;20326;-56
2022/10/09 00:16:44;;;;;;;;;;;;;;;;;;5026525;28;19928;-57
2022/10/09 00:19:10;;;;;;;;;;;;;;;;;;5026644;28;20434;-57
2022/10/09 00:21:36;;;;;;;;;;;;;;;;;;5025605;28;19921;-56
2022/10/09 00:24:02;;;;;;;;;;;;;;;;;;5026689;28;20295;-56
2022/10/09 00:26:28;;;;;;;;;;;;;;;;;;5027029;28;19921;-56
2022/10/09 00:28:54;;;;;;;;;;;;;;;;;;5027445;28;20318;-56
2022/10/09 00:31:20;;;;;;;;;;;;;;;;;;5026485;28;20389;-56
2022/10/09 00:33:46;;;;;;;;;;;;;;;;;;5026589;28;19960;-57
2022/10/09 00:36:12;;;;;;;;;;;;;;;;;;5028052;28;19921;-57
2022/10/09 00:38:38;;;;;;;;;;;;;;;;;;5029423;28;19921;-57
2022/10/09 00:41:04;;;;;;;;;;;;;;;;;;5029519;28;19921;-57
2022/10/09 00:43:30;;;;;;;;;;;;;;;;;;5030511;28;19928;-57
2022/10/09 00:45:56;;;;;;;;;;;;;;;;;;5030779;28;19921;-56
2022/10/09 00:48:22;;;;;;;;;;;;;;;;;;5030912;28;20000;-57
2022/10/09 00:50:48;;;;;;;;;;;;;;;;;;5030142;28;19921;-56
2022/10/09 00:53:13;;;;;;;;;;;;;;;;;;5028553;28;19921;-56
2022/10/09 00:55:39;;;;;;;;;;;;;;;;;;5030128;28;19944;-57
2022/10/09 00:58:05;;;;;;;;;;;;;;;;;;5030036;28;19928;-57
2022/10/09 01:00:31;;;;;;;;;;;;;;;;;;5029586;28;19921;-56
2022/10/09 01:02:57;;;;;;;;;;;;;;;;;;5029726;28;19921;-57
2022/10/09 01:05:23;;;;;;;;;;;;;;;;;;5030643;28;19921;-57
2022/10/09 01:07:49;;;;;;;;;;;;;;;;;;5092089;22;19925;-57
2022/10/09 01:10:15;;;;;;;;;;;;;;;;;;5013248;28;19948;-57
2022/10/09 01:12:41;;;;;;;;;;;;;;;;;;5021151;28;20457;-57
2022/10/09 01:15:07;;;;;;;;;;;;;;;;;;5013413;28;19954;-57
2022/10/09 01:17:33;;;;;;;;;;;;;;;;;;5019291;28;19965;-57
2022/10/09 01:19:59;;;;;;;;;;;;;;;;;;5010087;28;20063;-58
2022/10/09 01:22:25;;;;;;;;;;;;;;;;;;5015913;28;20384;-56
2022/10/09 01:24:51;;;;;;;;;;;;;;;;;;4991601;28;19922;-57
2022/10/09 01:27:18;;;;;;;;;;;;;;;;;;5010215;28;20015;-57
2022/10/09 01:29:44;;;;;;;;;;;;;;;;;;5020253;28;19955;-57
2022/10/09 01:32:10;;;;;;;;;;;;;;;;;;5014842;28;19944;-57
2022/10/09 01:34:36;;;;;;;;;;;;;;;;;;5008949;28;20454;-57
2022/10/09 01:37:02;;;;;;;;;;;;;;;;;;5008075;28;19972;-57
2022/10/09 01:39:29;;;;;;;;;;;;;;;;;;5010316;28;20044;-57
2022/10/09 01:41:55;;;;;;;;;;;;;;;;;;5020527;28;19922;-57
2022/10/09 01:44:21;;;;;;;;;;;;;;;;;;5011332;28;19921;-57
2022/10/09 01:46:47;;;;;;;;;;;;;;;;;;5009612;28;19921;-56
2022/10/09 01:49:13;;;;;;;;;;;;;;;;;;5011061;28;19922;-56
2022/10/09 01:51:39;;;;;;;;;;;;;;;;;;5010331;28;20290;-57
2022/10/09 01:54:04;;;;;;;;;;;;;;;;;;4992470;28;19921;-56
2022/10/09 01:56:31;;;;;;;;;;;;;;;;;;5012697;28;20536;-57
2022/10/09 01:58:56;;;;;;;;;;;;;;;;;;5009487;28;20008;-58
2022/10/09 02:01:22;;;;;;;;;;;;;;;;;;5010057;28;19996;-57
2022/10/09 02:03:48;;;;;;;;;;;;;;;;;;5013502;28;20459;-57
2022/10/09 02:06:14;;;;;;;;;;;;;;;;;;5008667;28;19925;-56
2022/10/09 02:08:40;;;;;;;;;;;;;;;;;;5013219;28;20525;-57
2022/10/09 02:11:07;;;;;;;;;;;;;;;;;;5009423;28;19932;-57
2022/10/09 02:13:32;;;;;;;;;;;;;;;;;;5009551;28;19944;-56
2022/10/09 02:15:58;;;;;;;;;;;;;;;;;;5014153;28;20291;-57
2022/10/09 02:18:24;;;;;;;;;;;;;;;;;;5009891;28;19928;-57
2022/10/09 02:20:50;;;;;;;;;;;;;;;;;;5009967;28;20303;-57
2022/10/09 02:23:16;;;;;;;;;;;;;;;;;;5008219;28;20025;-57
2022/10/09 02:25:42;;;;;;;;;;;;;;;;;;5008669;28;19922;-57
2022/10/09 02:28:08;;;;;;;;;;;;;;;;;;5008762;28;20374;-56
2022/10/09 02:30:34;;;;;;;;;;;;;;;;;;4997692;28;19976;-57
2022/10/09 02:33:00;;;;;;;;;;;;;;;;;;5008961;28;20008;-57
2022/10/09 02:35:26;;;;;;;;;;;;;;;;;;5009142;28;19936;-59
2022/10/09 02:37:52;;;;;;;;;;;;;;;;;;5008594;28;20501;-57
2022/10/09 02:40:18;;;;;;;;;;;;;;;;;;5008969;28;19917;-56
2022/10/09 02:42:44;;;;;;;;;;;;;;;;;;5010521;28;19925;-56
2022/10/09 02:45:10;;;;;;;;;;;;;;;;;;5009107;28;20008;-57
2022/10/09 02:47:36;;;;;;;;;;;;;;;;;;5013743;28;19922;-58
2022/10/09 02:50:02;;;;;;;;;;;;;;;;;;5010918;28;20278;-57
2022/10/09 02:52:28;;;;;;;;;;;;;;;;;;5008049;28;20371;-57
2022/10/09 02:54:54;;;;;;;;;;;;;;;;;;5008941;28;19975;-56
2022/10/09 02:57:20;;;;;;;;;;;;;;;;;;4993536;28;19968;-57
2022/10/09 02:59:46;;;;;;;;;;;;;;;;;;5008917;28;19932;-57
2022/10/09 03:02:12;;;;;;;;;;;;;;;;;;5011311;28;19929;-57
2022/10/09 03:04:38;;;;;;;;;;;;;;;;;;5009102;28;19972;-57
2022/10/09 03:07:04;;;;;;;;;;;;;;;;;;5007736;28;19929;-56
2022/10/09 03:09:30;;;;;;;;;;;;;;;;;;5013097;28;20378;-56
2022/10/09 03:11:56;;;;;;;;;;;;;;;;;;5008443;28;19928;-59
2022/10/09 03:14:22;;;;;;;;;;;;;;;;;;5015526;28;19921;-56
2022/10/09 03:16:48;;;;;;;;;;;;;;;;;;5013847;28;19928;-57
2022/10/09 03:19:14;;;;;;;;;;;;;;;;;;5008460;28;20386;-57
2022/10/09 03:21:40;;;;;;;;;;;;;;;;;;5020541;28;19926;-57
2022/10/09 03:24:06;;;;;;;;;;;;;;;;;;5013929;28;20016;-57
2022/10/09 03:26:32;;;;;;;;;;;;;;;;;;5007930;28;19921;-57
2022/10/09 03:28:58;;;;;;;;;;;;;;;;;;5020012;28;20007;-57
2022/10/09 03:31:24;;;;;;;;;;;;;;;;;;5013535;28;19945;-56
2022/10/09 03:33:50;;;;;;;;;;;;;;;;;;5008297;28;19929;-57
2022/10/09 03:36:16;;;;;;;;;;;;;;;;;;5013852;28;19925;-57
2022/10/09 03:38:42;;;;;;;;;;;;;;;;;;5009446;28;19929;-57
2022/10/09 03:41:08;;;;;;;;;;;;;;;;;;5008453;28;20004;-57
2022/10/09 03:43:34;;;;;;;;;;;;;;;;;;5012416;28;19928;-57
2022/10/09 03:46:00;;;;;;;;;;;;;;;;;;5008379;28;20252;-57
2022/10/09 03:48:26;;;;;;;;;;;;;;;;;;5008172;28;20381;-57
2022/10/09 03:50:52;;;;;;;;;;;;;;;;;;5017060;28;19921;-58
2022/10/09 03:53:18;;;;;;;;;;;;;;;;;;5007754;28;19968;-57
2022/10/09 03:55:44;;;;;;;;;;;;;;;;;;5021734;28;19921;-57
2022/10/09 03:58:10;;;;;;;;;;;;;;;;;;5016766;28;19925;-56
2022/10/09 04:00:36;;;;;;;;;;;;;;;;;;5008143;28;19940;-56
2022/10/09 04:03:02;;;;;;;;;;;;;;;;;;5013146;28;19921;-57
2022/10/09 04:05:29;;;;;;;;;;;;;;;;;;5013050;28;19965;-57
2022/10/09 04:07:55;;;;;;;;;;;;;;;;;;5007443;28;20367;-57
2022/10/09 04:10:21;;;;;;;;;;;;;;;;;;5017482;28;19929;-57
2022/10/09 04:12:47;;;;;;;;;;;;;;;;;;5012843;28;20291;-57
2022/10/09 04:15:13;;;;;;;;;;;;;;;;;;5013426;28;19961;-57
2022/10/09 04:17:39;;;;;;;;;;;;;;;;;;5023253;28;19960;-57
2022/10/09 04:20:05;;;;;;;;;;;;;;;;;;5011409;28;20424;-57
2022/10/09 04:22:31;;;;;;;;;;;;;;;;;;5011248;28;19936;-57
2022/10/09 04:24:57;;;;;;;;;;;;;;;;;;5023452;28;20267;-59
2022/10/09 04:27:23;;;;;;;;;;;;;;;;;;5007853;28;20386;-57
2022/10/09 04:29:49;;;;;;;;;;;;;;;;;;5022656;28;19967;-57
2022/10/09 04:32:15;;;;;;;;;;;;;;;;;;5016666;28;19947;-57
2022/10/09 04:34:41;;;;;;;;;;;;;;;;;;5011766;28;19928;-57
2022/10/09 04:37:07;;;;;;;;;;;;;;;;;;5018656;28;19921;-57
2022/10/09 04:39:33;;;;;;;;;;;;;;;;;;4993874;28;19928;-58
2022/10/09 04:41:59;;;;;;;;;;;;;;;;;;5010742;28;20084;-57
2022/10/09 04:44:25;;;;;;;;;;;;;;;;;;4999503;28;19928;-57
2022/10/09 04:46:51;;;;;;;;;;;;;;;;;;5011076;28;19932;-57
2022/10/09 04:49:17;;;;;;;;;;;;;;;;;;5010468;28;19925;-57
2022/10/09 04:51:43;;;;;;;;;;;;;;;;;;5016630;28;20385;-57
2022/10/09 04:54:09;;;;;;;;;;;;;;;;;;5011004;28;19922;-56
2022/10/09 04:56:35;;;;;;;;;;;;;;;;;;4998280;28;19921;-57
2022/10/09 04:59:01;;;;;;;;;;;;;;;;;;4995450;28;19921;-57
2022/10/09 05:01:27;;;;;;;;;;;;;;;;;;5008203;28;19922;-56
2022/10/09 05:03:53;;;;;;;;;;;;;;;;;;5018607;28;19928;-57
2022/10/09 05:06:19;;;;;;;;;;;;;;;;;;5009710;28;20008;-56
2022/10/09 05:08:45;;;;;;;;;;;;;;;;;;4996044;28;19940;-56
2022/10/09 05:11:11;;;;;;;;;;;;;;;;;;5018378;28;19921;-56
2022/10/09 05:13:37;;;;;;;;;;;;;;;;;;5011016;28;19953;-57
2022/10/09 05:16:03;;;;;;;;;;;;;;;;;;5010379;28;19928;-56
2022/10/09 05:18:29;;;;;;;;;;;;;;;;;;5019969;28;19975;-57
2022/10/09 05:20:55;;;;;;;;;;;;;;;;;;5011154;28;20526;-57
2022/10/09 05:23:21;;;;;;;;;;;;;;;;;;5024850;28;19921;-56
2022/10/09 05:25:47;;;;;;;;;;;;;;;;;;5015716;28;19932;-57
2022/10/09 05:28:13;;;;;;;;;;;;;;;;;;5017538;28;19929;-57
2022/10/09 05:30:39;;;;;;;;;;;;;;;;;;5019261;28;19921;-56
2022/10/09 05:33:05;;;;;;;;;;;;;;;;;;5013842;28;19928;-56
2022/10/09 05:35:31;;;;;;;;;;;;;;;;;;5014866;28;20004;-56
2022/10/09 05:37:57;;;;;;;;;;;;;;;;;;4993375;28;19928;-57
2022/10/09 05:40:23;;;;;;;;;;;;;;;;;;5010782;28;19928;-57
2022/10/09 05:42:49;;;;;;;;;;;;;;;;;;5019283;28;20362;-56
2022/10/09 05:45:15;;;;;;;;;;;;;;;;;;5012155;28;19921;-57
2022/10/09 05:47:41;;;;;;;;;;;;;;;;;;5010252;28;19929;-56
2022/10/09 05:50:07;;;;;;;;;;;;;;;;;;4995559;28;20279;-57
2022/10/09 05:52:33;;;;;;;;;;;;;;;;;;5017414;28;19967;-57
2022/10/09 05:54:59;;;;;;;;;;;;;;;;;;5011598;28;19925;-57
2022/10/09 05:57:25;;;;;;;;;;;;;;;;;;5016779;28;19921;-57
2022/10/09 05:59:51;;;;;;;;;;;;;;;;;;5000999;28;19925;-57
2022/10/09 06:02:18;;;;;;;;;;;;;;;;;;4998941;28;19972;-57
2022/10/09 06:04:44;;;;;;;;;;;;;;;;;;4988729;28;19921;-57
2022/10/09 06:07:10;;;;;;;;;;;;;;;;;;4994623;28;19921;-58
2022/10/09 06:09:36;;;;;;;;;;;;;;;;;;4993658;28;19921;-58
2022/10/09 06:12:02;;;;;;;;;;;;;;;;;;4995421;28;19985;-57
2022/10/09 06:14:28;;;;;;;;;;;;;;;;;;4997047;28;20363;-58
2022/10/09 06:16:54;;;;;;;;;;;;;;;;;;4995718;28;19921;-57
2022/10/09 06:19:20;;;;;;;;;;;;;;;;;;4994738;28;19921;-57
2022/10/09 06:21:46;;;;;;;;;;;;;;;;;;4989101;28;19968;-57
2022/10/09 06:24:12;;;;;;;;;;;;;;;;;;4993267;28;19922;-57
2022/10/09 06:26:38;;;;;;;;;;;;;;;;;;4998693;28;19960;-57
2022/10/09 06:29:04;;;;;;;;;;;;;;;;;;4997542;28;19968;-57
2022/10/09 06:31:30;;;;;;;;;;;;;;;;;;4994602;28;19929;-57
2022/10/09 06:33:56;;;;;;;;;;;;;;;;;;4989927;28;19917;-59
2022/10/09 06:36:22;;;;;;;;;;;;;;;;;;4996722;28;19921;-57
2022/10/09 06:38:48;;;;;;;;;;;;;;;;;;4990749;28;20376;-57
2022/10/09 06:41:14;;;;;;;;;;;;;;;;;;5008389;28;19998;-56
2022/10/09 06:43:40;;;;;;;;;;;;;;;;;;4999487;28;19921;-57
2022/10/09 06:46:06;;;;;;;;;;;;;;;;;;5008625;28;19959;-57
2022/10/09 06:48:32;;;;;;;;;;;;;;;;;;5009110;28;20535;-56
2022/10/09 06:50:58;;;;;;;;;;;;;;;;;;5007829;28;20450;-56
2022/10/09 06:53:24;;;;;;;;;;;;;;;;;;4999357;28;19932;-56
2022/10/09 06:55:50;;;;;;;;;;;;;;;;;;5001502;28;20010;-56
2022/10/09 06:58:16;;;;;;;;;;;;;;;;;;4994581;28;20409;-57
2022/10/09 07:00:42;;;;;;;;;;;;;;;;;;4989093;28;19925;-56
2022/10/09 07:03:08;;;;;;;;;;;;;;;;;;5006066;28;19933;-55
2022/10/09 07:05:34;;;;;;;;;;;;;;;;;;5005618;28;20444;-56
2022/10/09 07:08:00;;;;;;;;;;;;;;;;;;5005734;28;20007;-56
2022/10/09 07:10:26;;;;;;;;;;;;;;;;;;5006567;28;19925;-57
2022/10/09 07:12:52;;;;;;;;;;;;;;;;;;5005688;28;19928;-56
2022/10/09 07:15:18;;;;;;;;;;;;;;;;;;5005773;28;19925;-55
2022/10/09 07:17:44;;;;;;;;;;;;;;;;;;4988206;28;19922;-56
2022/10/09 07:20:10;;;;;;;;;;;;;;;;;;4978563;28;19931;-56
2022/10/09 07:22:36;;;;;;;;;;;;;;;;;;4995779;28;19935;-55
2022/10/09 07:25:02;;;;;;;;;;;;;;;;;;4989274;28;19928;-56
2022/10/09 07:27:28;;;;;;;;;;;;;;;;;;4988526;28;19922;-57
2022/10/09 07:29:55;;;;;;;;;;;;;;;;;;4994787;28;19936;-56
2022/10/09 07:32:21;;;;;;;;;;;;;;;;;;5005329;28;20370;-57
2022/10/09 07:34:47;;;;;;;;;;;;;;;;;;5005756;28;19979;-55
2022/10/09 07:37:13;;;;;;;;;;;;;;;;;;5004872;28;20389;-56
2022/10/09 07:39:39;;;;;;;;;;;;;;;;;;5006044;28;19925;-55
2022/10/09 07:42:05;;;;;;;;;;;;;;;;;;5005474;28;20607;-57
2022/10/09 07:44:31;;;;;;;;;;;;;;;;;;5005624;28;20425;-57
2022/10/09 07:46:57;;;;;;;;;;;;;;;;;;5007823;28;19932;-58
2022/10/09 07:49:23;;;;;;;;;;;;;;;;;;5005089;28;19921;-56
2022/10/09 07:51:49;;;;;;;;;;;;;;;;;;5009375;28;20349;-56
2022/10/09 07:54:15;;;;;;;;;;;;;;;;;;5009344;28;19993;-57
2022/10/09 07:56:41;;;;;;;;;;;;;;;;;;5009833;28;20008;-57
2022/10/09 07:59:07;;;;;;;;;;;;;;;;;;5009800;28;20008;-56
2022/10/09 08:01:33;;;;;;;;;;;;;;;;;;5009852;28;19923;-56
2022/10/09 08:03:59;;;;;;;;;;;;;;;;;;5007650;28;20535;-57
2022/10/09 08:06:25;;;;;;;;;;;;;;;;;;5008885;28;19929;-56
2022/10/09 08:08:51;;;;;;;;;;;;;;;;;;5008846;28;19925;-57
2022/10/09 08:11:17;;;;;;;;;;;;;;;;;;5008765;28;19925;-57
2022/10/09 08:13:43;;;;;;;;;;;;;;;;;;5009160;28;19928;-58
2022/10/09 08:16:09;;;;;;;;;;;;;;;;;;5007935;28;19921;-57
2022/10/09 08:18:35;;;;;;;;;;;;;;;;;;5008500;28;19918;-57
2022/10/09 08:21:01;;;;;;;;;;;;;;;;;;5015315;28;19983;-56
2022/10/09 08:23:27;;;;;;;;;;;;;;;;;;5017500;28;20318;-55
2022/10/09 08:25:53;;;;;;;;;;;;;;;;;;5011587;28;20367;-57
2022/10/09 08:28:19;;;;;;;;;;;;;;;;;;5015417;28;19921;-57
2022/10/09 08:30:45;;;;;;;;;;;;;;;;;;5013799;28;19927;-57
2022/10/09 08:33:11;;;;;;;;;;;;;;;;;;5010736;28;19921;-57
2022/10/09 08:35:37;;;;;;;;;;;;;;;;;;5013129;28;20351;-56
2022/10/09 08:38:03;;;;;;;;;;;;;;;;;;5023287;28;19923;-57
2022/10/09 08:40:29;;;;;;;;;;;;;;;;;;5014126;28;19928;-56
2022/10/09 08:42:55;;;;;;;;;;;;;;;;;;5015231;28;19928;-56
2022/10/09 08:45:21;;;;;;;;;;;;;;;;;;5011284;28;19922;-56
2022/10/09 08:47:47;;;;;;;;;;;;;;;;;;4993836;28;19975;-57
2022/10/09 08:50:13;;;;;;;;;;;;;;;;;;5013952;28;19956;-57
2022/10/09 08:52:39;;;;;;;;;;;;;;;;;;5009945;28;19921;-57
2022/10/09 08:55:05;;;;;;;;;;;;;;;;;;5000664;28;19924;-57
2022/10/09 08:57:31;;;;;;;;;;;;;;;;;;5003019;28;19967;-57
2022/10/09 08:59:57;;;;;;;;;;;;;;;;;;4997827;28;19929;-57
2022/10/09 09:02:23;;;;;;;;;;;;;;;;;;4993564;28;19918;-57
2022/10/09 09:04:49;;;;;;;;;;;;;;;;;;4994938;28;19922;-57
2022/10/09 09:07:15;;;;;;;;;;;;;;;;;;5009852;28;20410;-57
2022/10/09 09:09:42;;;;;;;;;;;;;;;;;;5016194;28;20742;-57
2022/10/09 09:12:08;;;;;;;;;;;;;;;;;;5014803;28;19921;-56
2022/10/09 09:14:34;;;;;;;;;;;;;;;;;;5015606;28;19922;-57
2022/10/09 09:17:00;;;;;;;;;;;;;;;;;;5010600;28;19921;-57
2022/10/09 09:19:26;;;;;;;;;;;;;;;;;;5018061;28;19922;-57
2022/10/09 09:31:09;;;;;;;;;;;;;;;;;;5008202;28;20390;-57
2022/10/09 09:33:35;;;;;;;;;;;;;;;;;;4993888;28;19921;-58
2022/10/09 09:36:01;;;;;;;;;;;;;;;;;;5018165;28;19929;-58
2022/10/09 09:38:27;;;;;;;;;;;;;;;;;;5023382;28;20362;-59
2022/10/09 09:40:53;;;;;;;;;;;;;;;;;;5016705;28;19963;-58
2022/10/09 09:43:19;;;;;;;;;;;;;;;;;;5015041;28;19975;-58
2022/10/09 09:45:45;;;;;;;;;;;;;;;;;;5011099;28;20318;-56
2022/10/09 09:48:11;;;;;;;;;;;;;;;;;;5020666;28;19917;-58
2022/10/09 09:50:39;;;;;;;;;;;;;;;;;;5010608;28;20268;-57
2022/10/09 09:53:05;;;;;;;;;;;;;;;;;;5009734;28;19951;-58
2022/10/09 09:55:31;;;;;;;;;;;;;;;;;;5022091;28;19942;-57
2022/10/09 09:57:57;;;;;;;;;;;;;;;;;;5009593;28;19936;-57
2022/10/09 10:00:23;;;;;;;;;;;;;;;;;;5010389;28;20810;-58
2022/10/09 10:02:49;;;;;;;;;;;;;;;;;;5010133;28;20379;-58
2022/10/09 10:05:15;;;;;;;;;;;;;;;;;;5008838;28;19952;-58
2022/10/09 10:07:41;;;;;;;;;;;;;;;;;;5010429;28;19921;-58
2022/10/09 10:10:07;;;;;;;;;;;;;;;;;;5014327;28;19921;-58
2022/10/09 10:12:33;;;;;;;;;;;;;;;;;;5009616;28;19918;-58
2022/10/09 10:15:05;;;;;;;;;;;;;;;;;;5010426;28;20390;-57
2022/10/09 10:17:32;;;;;;;;;;;;;;;;;;5009586;28;20464;-57
2022/10/09 10:19:58;;;;;;;;;;;;;;;;;;5017809;28;19921;-57
2022/10/09 10:22:24;;;;;;;;;;;;;;;;;;5011921;28;19921;-56
2022/10/09 10:24:50;;;;;;;;;;;;;;;;;;5005635;28;19933;-58
2022/10/09 10:27:16;;;;;;;;;;;;;;;;;;5009748;28;19925;-58
2022/10/09 10:29:42;;;;;;;;;;;;;;;;;;5009088;28;20389;-58
2022/10/09 10:32:08;;;;;;;;;;;;;;;;;;5008263;28;19921;-58
2022/10/09 10:34:34;;;;;;;;;;;;;;;;;;5012014;28;19968;-58
2022/10/09 10:37:00;;;;;;;;;;;;;;;;;;5009875;28;20440;-58
2022/10/09 10:39:27;;;;;;;;;;;;;;;;;;5008794;28;19925;-58
2022/10/09 10:41:53;;;;;;;;;;;;;;;;;;5012841;28;20378;-58
2022/10/09 10:44:19;;;;;;;;;;;;;;;;;;4990660;28;19933;-58
2022/10/09 10:46:47;;;;;;;;;;;;;;;;;;5008667;28;19925;-58
2022/10/09 10:49:13;;;;;;;;;;;;;;;;;;5016362;28;19917;-57
2022/10/09 10:51:39;;;;;;;;;;;;;;;;;;5007953;28;19957;-57
2022/10/09 10:54:05;;;;;;;;;;;;;;;;;;5011256;28;20075;-58
2022/10/09 10:56:31;;;;;;;;;;;;;;;;;;5015073;28;19928;-57
2022/10/09 10:58:57;;;;;;;;;;;;;;;;;;5008670;28;19921;-58
2022/10/09 11:01:23;;;;;;;;;;;;;;;;;;5013445;28;20282;-56
2022/10/09 11:03:49;;;;;;;;;;;;;;;;;;5008340;28;19928;-57
2022/10/09 11:06:15;;;;;;;;;;;;;;;;;;5007598;28;19968;-57
2022/10/09 11:08:41;;;;;;;;;;;;;;;;;;5011865;28;19928;-56
2022/10/09 11:11:07;;;;;;;;;;;;;;;;;;5010484;28;20015;-58
2022/10/09 11:13:33;;;;;;;;;;;;;;;;;;5008788;28;19925;-58
2022/10/09 11:15:59;;;;;;;;;;;;;;;;;;5007802;28;19922;-58
2022/10/09 11:18:25;;;;;;;;;;;;;;;;;;5008787;28;19979;-58
2022/10/09 11:20:51;;;;;;;;;;;;;;;;;;5008888;28;19937;-58
2022/10/09 11:23:17;;;;;;;;;;;;;;;;;;5008023;28;20036;-57
2022/10/09 11:25:43;;;;;;;;;;;;;;;;;;5008271;28;20039;-58
2022/10/09 11:28:09;;;;;;;;;;;;;;;;;;5009571;28;19922;-56
2022/10/09 11:30:35;;;;;;;;;;;;;;;;;;5008425;28;19949;-58
2022/10/09 11:33:01;;;;;;;;;;;;;;;;;;5008292;28;20371;-56
2022/10/09 11:35:27;;;;;;;;;;;;;;;;;;5011562;28;19925;-57
2022/10/09 11:37:54;;;;;;;;;;;;;;;;;;5008882;28;19944;-58
2022/10/09 11:40:20;;;;;;;;;;;;;;;;;;5007748;28;19964;-58
2022/10/09 11:42:46;;;;;;;;;;;;;;;;;;5015208;28;20019;-58
2022/10/09 11:45:12;;;;;;;;;;;;;;;;;;5011406;28;19928;-57
2022/10/09 11:47:38;;;;;;;;;;;;;;;;;;4992892;28;19929;-58
2022/10/09 11:50:04;;;;;;;;;;;;;;;;;;5008631;28;20457;-56
2022/10/09 11:52:30;;;;;;;;;;;;;;;;;;5006210;28;19928;-58
2022/10/09 11:54:56;;;;;;;;;;;;;;;;;;5012719;28;19913;-58
2022/10/09 11:57:22;;;;;;;;;;;;;;;;;;5008342;28;20006;-58
2022/10/09 11:59:48;;;;;;;;;;;;;;;;;;5008660;28;20351;-58
2022/10/09 12:02:14;;;;;;;;;;;;;;;;;;5018045;28;19917;-57
2022/10/09 12:04:40;;;;;;;;;;;;;;;;;;5007298;28;20283;-56
2022/10/09 12:07:08;;;;;;;;;;;;;;;;;;5007523;28;19922;-56
2022/10/09 12:09:34;;;;;;;;;;;;;;;;;;5019019;28;19922;-58
2022/10/09 12:12:00;;;;;;;;;;;;;;;;;;5026885;28;19920;-58
2022/10/09 12:14:26;;;;;;;;;;;;;;;;;;5011177;28;20387;-58
2022/10/09 12:16:52;;;;;;;;;;;;;;;;;;5010724;28;20012;-57
2022/10/09 12:19:18;;;;;;;;;;;;;;;;;;5008750;28;19929;-58
2022/10/09 12:21:44;;;;;;;;;;;;;;;;;;5007319;28;19921;-57
2022/10/09 12:24:10;;;;;;;;;;;;;;;;;;5005891;28;20362;-58
2022/10/09 12:26:36;;;;;;;;;;;;;;;;;;5014848;28;19935;-56
2022/10/09 12:29:03;;;;;;;;;;;;;;;;;;5007607;28;19921;-58
2022/10/09 12:31:29;;;;;;;;;;;;;;;;;;5007807;28;19921;-58
2022/10/09 12:33:55;;;;;;;;;;;;;;;;;;5025874;28;19932;-57
2022/10/09 12:36:21;;;;;;;;;;;;;;;;;;5017264;28;19922;-57
2022/10/09 12:38:47;;;;;;;;;;;;;;;;;;4995499;28;19943;-58
2022/10/09 12:41:13;;;;;;;;;;;;;;;;;;5019281;28;19968;-57
2022/10/09 12:43:39;;;;;;;;;;;;;;;;;;5011517;28;20008;-57
2022/10/09 12:46:05;;;;;;;;;;;;;;;;;;5013556;28;20375;-56
2022/10/09 12:48:31;;;;;;;;;;;;;;;;;;5015661;28;19921;-58
2022/10/09 12:50:57;;;;;;;;;;;;;;;;;;5010236;28;19921;-56
2022/10/09 12:53:23;;;;;;;;;;;;;;;;;;5015485;28;20003;-57
2022/10/09 12:55:49;;;;;;;;;;;;;;;;;;5009291;28;19922;-57
2022/10/09 13:09:40;;;;;;;;;;;;;;;;;;4999838;28;20448;-60
2022/10/09 13:12:06;;;;;;;;;;;;;;;;;;5006389;28;19925;-58
2022/10/09 13:20:07;;;;;;;;;;;;;;;;;;4350265;22;19969;-60
2022/10/09 13:25:31;;;;;;;;;;;;;;;;;;4990656;28;19996;-59
2022/10/09 13:27:57;;;;;;;;;;;;;;;;;;4968570;28;19925;-60
2022/10/09 13:30:24;;;;;;;;;;;;;;;;;;4986861;28;19967;-60
2022/10/09 13:32:50;;;;;;;;;;;;;;;;;;4986177;28;19925;-61
2022/10/09 13:35:16;;;;;;;;;;;;;;;;;;4986370;28;19929;-60
2022/10/09 13:37:42;;;;;;;;;;;;;;;;;;4987693;28;19926;-60
2022/10/09 13:40:08;;;;;;;;;;;;;;;;;;4986645;28;19952;-60
2022/10/09 13:42:35;;;;;;;;;;;;;;;;;;4986764;28;20405;-60
2022/10/09 13:45:01;;;;;;;;;;;;;;;;;;4987187;28;20681;-59
2022/10/09 13:47:27;;;;;;;;;;;;;;;;;;4986349;28;19928;-60
2022/10/09 13:49:53;;;;;;;;;;;;;;;;;;4985734;28;19921;-60
2022/10/09 13:52:19;;;;;;;;;;;;;;;;;;4986323;28;20316;-59
2022/10/09 13:54:45;;;;;;;;;;;;;;;;;;4969341;28;19922;-60
2022/10/09 13:57:11;;;;;;;;;;;;;;;;;;4986214;28;19921;-61
2022/10/09 13:59:37;;;;;;;;;;;;;;;;;;4985207;28;19925;-59
2022/10/09 14:02:03;;;;;;;;;;;;;;;;;;4986714;28;19921;-61
2022/10/09 14:13:28;;;;;;;;;;;;;;;;;;4992192;28;19940;-60
2022/10/09 14:15:54;;;;;;;;;;;;;;;;;;4994181;28;19952;-59
2022/10/09 14:18:20;;;;;;;;;;;;;;;;;;4999084;28;19940;-59
2022/10/09 14:20:46;;;;;;;;;;;;;;;;;;4995140;28;20364;-59
2022/10/09 14:23:12;;;;;;;;;;;;;;;;;;4985563;28;20398;-60
2022/10/09 14:25:38;;;;;;;;;;;;;;;;;;4985638;28;19980;-57
2022/10/09 14:28:04;;;;;;;;;;;;;;;;;;4985613;28;19921;-57
2022/10/09 14:30:30;;;;;;;;;;;;;;;;;;4987812;28;20036;-58
2022/10/09 14:32:56;;;;;;;;;;;;;;;;;;4984013;28;20016;-59
2022/10/09 14:35:22;;;;;;;;;;;;;;;;;;4989477;28;19929;-58
2022/10/09 14:37:48;;;;;;;;;;;;;;;;;;4986111;28;19930;-60
2022/10/09 14:40:14;;;;;;;;;;;;;;;;;;4986535;28;20564;-58
2022/10/09 14:42:40;;;;;;;;;;;;;;;;;;4986141;28;19922;-59
2022/10/09 14:45:06;;;;;;;;;;;;;;;;;;4985825;28;19925;-58
2022/10/09 14:47:33;;;;;;;;;;;;;;;;;;4985564;28;20335;-59
2022/10/09 14:49:59;;;;;;;;;;;;;;;;;;4967970;28;19922;-58
2022/10/09 14:52:25;;;;;;;;;;;;;;;;;;4986001;28;20008;-59
2022/10/09 14:54:51;;;;;;;;;;;;;;;;;;4984431;28;19926;-57
2022/10/09 14:57:17;;;;;;;;;;;;;;;;;;4984389;28;19921;-62
2022/10/09 14:59:43;;;;;;;;;;;;;;;;;;4985325;28;19928;-61
2022/10/09 15:02:08;;;;;;;;;;;;;;;;;;4985314;28;19932;-59
2022/10/09 15:04:34;;;;;;;;;;;;;;;;;;4984161;28;19926;-59
2022/10/09 15:07:00;;;;;;;;;;;;;;;;;;4984622;28;19980;-60
2022/10/09 15:09:27;;;;;;;;;;;;;;;;;;4984749;28;20575;-60
2022/10/09 15:11:53;;;;;;;;;;;;;;;;;;4984922;28;20394;-59
2022/10/09 15:14:19;;;;;;;;;;;;;;;;;;4985065;28;19933;-60
2022/10/09 15:16:45;;;;;;;;;;;;;;;;;;4985132;28;19925;-59
2022/10/09 15:19:11;;;;;;;;;;;;;;;;;;4983952;28;19933;-60
2022/10/09 15:21:37;;;;;;;;;;;;;;;;;;4982677;28;19925;-58
2022/10/09 15:24:03;;;;;;;;;;;;;;;;;;4966780;28;19926;-58
2022/10/09 15:26:31;;;;;;;;;;;;;;;;;;4984732;28;19969;-59
2022/10/09 15:28:57;;;;;;;;;;;;;;;;;;4982650;28;19921;-59
2022/10/09 15:31:23;;;;;;;;;;;;;;;;;;4983709;28;19984;-60
2022/10/09 15:33:49;;;;;;;;;;;;;;;;;;4983579;28;19928;-60
2022/10/09 15:36:15;;;;;;;;;;;;;;;;;;4983538;28;19925;-60
2022/10/09 15:38:42;;;;;;;;;;;;;;;;;;4983842;28;20012;-58
2022/10/09 15:41:08;;;;;;;;;;;;;;;;;;4982723;28;19918;-59
2022/10/09 15:43:34;;;;;;;;;;;;;;;;;;4982151;28;19929;-58
2022/10/09 15:46:01;;;;;;;;;;;;;;;;;;4984070;28;19926;-59
2022/10/09 15:48:27;;;;;;;;;;;;;;;;;;4983457;28;20379;-58
2022/10/09 15:50:53;;;;;;;;;;;;;;;;;;4979694;28;19933;-59
2022/10/09 15:53:19;;;;;;;;;;;;;;;;;;4984436;28;19925;-58
2022/10/09 15:55:45;;;;;;;;;;;;;;;;;;4985426;28;19929;-58
2022/10/09 15:58:11;;;;;;;;;;;;;;;;;;4986038;28;19925;-59
2022/10/09 16:00:37;;;;;;;;;;;;;;;;;;4985224;28;19926;-59
2022/10/09 16:03:03;;;;;;;;;;;;;;;;;;4984165;28;19925;-58
2022/10/09 16:05:30;;;;;;;;;;;;;;;;;;4983337;28;20382;-58
2022/10/09 16:07:57;;;;;;;;;;;;;;;;;;4975520;28;20355;-59
2022/10/09 16:10:23;;;;;;;;;;;;;;;;;;4999128;28;19929;-58
2022/10/09 16:12:49;;;;;;;;;;;;;;;;;;4999197;28;20328;-59
2022/10/09 16:15:15;;;;;;;;;;;;;;;;;;5001666;28;19931;-58
2022/10/09 16:17:41;;;;;;;;;;;;;;;;;;4993934;28;20314;-59
2022/10/09 16:20:08;;;;;;;;;;;;;;;;;;4995892;28;20394;-58
2022/10/09 16:22:34;;;;;;;;;;;;;;;;;;4993691;28;20000;-59
2022/10/09 16:25:00;;;;;;;;;;;;;;;;;;4991502;28;19927;-58
2022/10/09 16:27:26;;;;;;;;;;;;;;;;;;4995066;28;19981;-58
2022/10/09 16:29:52;;;;;;;;;;;;;;;;;;4988270;28;19934;-58
2022/10/09 16:32:18;;;;;;;;;;;;;;;;;;4995943;28;19969;-58
2022/10/09 16:34:44;;;;;;;;;;;;;;;;;;4988512;28;19922;-58
2022/10/09 16:37:10;;;;;;;;;;;;;;;;;;4988157;28;19984;-58
2022/10/09 16:39:36;;;;;;;;;;;;;;;;;;4985411;28;20405;-58
2022/10/09 16:44:38;;;;;;;;;;;;;;;;;;4163558;23;19932;-54
2022/10/09 16:53:06;;;;;;;;;;;;;;;;;;5005525;28;19915;-57
2022/10/09 16:55:32;;;;;;;;;;;;;;;;;;5008412;28;20529;-57
2022/10/09 16:57:58;;;;;;;;;;;;;;;;;;5004240;28;19925;-57
2022/10/09 17:00:24;;;;;;;;;;;;;;;;;;5001653;28;20382;-57
2022/10/09 17:02:50;;;;;;;;;;;;;;;;;;5011567;28;20011;-57
2022/10/09 17:05:16;;;;;;;;;;;;;;;;;;5011546;28;19960;-58
2022/10/09 17:07:42;;;;;;;;;;;;;;;;;;4994295;28;19925;-57
2022/10/09 17:13:09;;;;;;;;;;;;;;;;;;5010149;28;19920;-57
2022/10/09 17:15:35;;;;;;;;;;;;;;;;;;5010773;28;19922;-57
2022/10/09 17:18:01;;;;;;;;;;;;;;;;;;5010776;28;20185;-58
2022/10/09 17:20:27;;;;;;;;;;;;;;;;;;5011483;28;19921;-57
2022/10/09 17:22:53;;;;;;;;;;;;;;;;;;5010949;28;20394;-57
2022/10/09 17:25:19;;;;;;;;;;;;;;;;;;5011060;28;19925;-57
2022/10/09 17:27:45;;;;;;;;;;;;;;;;;;5011418;28;19983;-58